sensor_id;sensor_type;location;lat;lon;timestamp;P1;durP1;ratioP1;P2;durP2;ratioP2
11807;SDS011;5961;42.640;23.380;2023-01-29T00:00:19;12.90;;;7.80;;
11807;SDS011;5961;42.640;23.380;2023-01-29T00:02:47;11.93;;;8.10;;
11807;SDS011;5961;42.640;23.380;2023-01-29T00:05:15;11.93;;;7.60;;
11807;SDS011;5961;42.640;23.380;2023-01-29T00:07:42;11.33;;;7.30;;
11807;SDS011;5961;42.640;23.380;2023-01-29T00:10:09;11.77;;;7.87;;
11807;SDS011;5961;42.640;23.380;2023-01-29T00:12:36;13.77;;;7.77;;
11807;SDS011;5961;42.640;23.380;2023-01-29T00:15:03;12.20;;;7.50;;
11807;SDS011;5961;42.640;23.380;2023-01-29T00:17:31;13.57;;;8.43;;
11807;SDS011;5961;42.640;23.380;2023-01-29T00:19:57;12.00;;;7.93;;
11807;SDS011;5961;42.640;23.380;2023-01-29T00:22:26;12.97;;;8.27;;
11807;SDS011;5961;42.640;23.380;2023-01-29T00:24:52;14.70;;;8.73;;
11807;SDS011;5961;42.640;23.380;2023-01-29T00:27:19;14.37;;;8.77;;
11807;SDS011;5961;42.640;23.380;2023-01-29T00:29:46;12.43;;;7.90;;
11807;SDS011;5961;42.640;23.380;2023-01-29T00:32:33;11.77;;;6.90;;
11807;SDS011;5961;42.640;23.380;2023-01-29T00:35:00;10.77;;;7.23;;
11807;SDS011;5961;42.640;23.380;2023-01-29T00:37:28;10.37;;;7.57;;
11807;SDS011;5961;42.640;23.380;2023-01-29T00:39:54;10.33;;;6.73;;
11807;SDS011;5961;42.640;23.380;2023-01-29T00:42:21;11.03;;;7.40;;
11807;SDS011;5961;42.640;23.380;2023-01-29T00:45:06;11.90;;;6.93;;
11807;SDS011;5961;42.640;23.380;2023-01-29T00:47:33;11.80;;;7.43;;
11807;SDS011;5961;42.640;23.380;2023-01-29T00:50:00;11.67;;;6.90;;
11807;SDS011;5961;42.640;23.380;2023-01-29T00:52:29;8.80;;;6.30;;
11807;SDS011;5961;42.640;23.380;2023-01-29T00:54:56;12.07;;;6.93;;
11807;SDS011;5961;42.640;23.380;2023-01-29T00:57:25;9.80;;;6.30;;
11807;SDS011;5961;42.640;23.380;2023-01-29T00:59:53;11.43;;;7.33;;
11807;SDS011;5961;42.640;23.380;2023-01-29T01:02:20;10.37;;;6.83;;
11807;SDS011;5961;42.640;23.380;2023-01-29T01:05:05;9.57;;;6.57;;
11807;SDS011;5961;42.640;23.380;2023-01-29T01:07:35;11.57;;;7.33;;
11807;SDS011;5961;42.640;23.380;2023-01-29T01:10:02;12.37;;;7.43;;
11807;SDS011;5961;42.640;23.380;2023-01-29T01:12:46;12.57;;;6.83;;
11807;SDS011;5961;42.640;23.380;2023-01-29T01:15:14;11.60;;;7.23;;
11807;SDS011;5961;42.640;23.380;2023-01-29T01:17:42;11.73;;;7.63;;
11807;SDS011;5961;42.640;23.380;2023-01-29T01:20:09;11.27;;;7.33;;
11807;SDS011;5961;42.640;23.380;2023-01-29T01:22:39;11.57;;;7.03;;
11807;SDS011;5961;42.640;23.380;2023-01-29T01:25:06;10.80;;;7.40;;
11807;SDS011;5961;42.640;23.380;2023-01-29T01:27:33;11.37;;;6.97;;
11807;SDS011;5961;42.640;23.380;2023-01-29T01:30:07;12.07;;;7.47;;
11807;SDS011;5961;42.640;23.380;2023-01-29T01:32:35;11.33;;;7.53;;
11807;SDS011;5961;42.640;23.380;2023-01-29T01:35:02;12.77;;;8.03;;
11807;SDS011;5961;42.640;23.380;2023-01-29T01:37:29;11.47;;;7.67;;
11807;SDS011;5961;42.640;23.380;2023-01-29T01:39:57;11.73;;;8.53;;
11807;SDS011;5961;42.640;23.380;2023-01-29T01:42:26;12.33;;;7.37;;
11807;SDS011;5961;42.640;23.380;2023-01-29T01:44:56;12.03;;;7.37;;
11807;SDS011;5961;42.640;23.380;2023-01-29T01:47:29;12.27;;;7.87;;
11807;SDS011;5961;42.640;23.380;2023-01-29T01:50:02;9.23;;;6.67;;
11807;SDS011;5961;42.640;23.380;2023-01-29T01:52:35;11.20;;;7.30;;
11807;SDS011;5961;42.640;23.380;2023-01-29T01:55:07;12.40;;;7.57;;
11807;SDS011;5961;42.640;23.380;2023-01-29T01:57:37;10.93;;;7.63;;
11807;SDS011;5961;42.640;23.380;2023-01-29T02:00:05;10.07;;;7.10;;
11807;SDS011;5961;42.640;23.380;2023-01-29T02:02:36;10.80;;;7.20;;
11807;SDS011;5961;42.640;23.380;2023-01-29T02:05:22;11.77;;;7.80;;
11807;SDS011;5961;42.640;23.380;2023-01-29T02:08:06;12.03;;;7.63;;
11807;SDS011;5961;42.640;23.380;2023-01-29T02:10:52;11.37;;;8.23;;
11807;SDS011;5961;42.640;23.380;2023-01-29T02:13:20;13.43;;;8.33;;
11807;SDS011;5961;42.640;23.380;2023-01-29T02:15:47;11.53;;;6.97;;
11807;SDS011;5961;42.640;23.380;2023-01-29T02:18:14;10.23;;;7.43;;
11807;SDS011;5961;42.640;23.380;2023-01-29T02:20:43;10.83;;;6.93;;
11807;SDS011;5961;42.640;23.380;2023-01-29T02:23:17;10.30;;;6.97;;
11807;SDS011;5961;42.640;23.380;2023-01-29T02:26:10;10.20;;;6.67;;
11807;SDS011;5961;42.640;23.380;2023-01-29T02:28:50;9.03;;;6.40;;
11807;SDS011;5961;42.640;23.380;2023-01-29T02:31:43;9.97;;;6.50;;
11807;SDS011;5961;42.640;23.380;2023-01-29T02:34:17;10.10;;;6.43;;
11807;SDS011;5961;42.640;23.380;2023-01-29T02:36:54;10.60;;;7.23;;
11807;SDS011;5961;42.640;23.380;2023-01-29T02:39:27;8.17;;;6.13;;
11807;SDS011;5961;42.640;23.380;2023-01-29T02:42:01;11.67;;;7.40;;
11807;SDS011;5961;42.640;23.380;2023-01-29T02:44:38;12.47;;;7.40;;
11807;SDS011;5961;42.640;23.380;2023-01-29T02:47:08;12.20;;;7.87;;
11807;SDS011;5961;42.640;23.380;2023-01-29T02:49:44;11.77;;;7.43;;
11807;SDS011;5961;42.640;23.380;2023-01-29T02:52:14;11.50;;;7.47;;
11807;SDS011;5961;42.640;23.380;2023-01-29T02:54:45;12.80;;;7.83;;
11807;SDS011;5961;42.640;23.380;2023-01-29T02:57:19;11.27;;;7.80;;
11807;SDS011;5961;42.640;23.380;2023-01-29T02:59:51;10.90;;;7.17;;
11807;SDS011;5961;42.640;23.380;2023-01-29T03:02:23;12.80;;;7.53;;
11807;SDS011;5961;42.640;23.380;2023-01-29T03:04:57;10.67;;;7.03;;
11807;SDS011;5961;42.640;23.380;2023-01-29T03:07:27;10.33;;;7.50;;
11807;SDS011;5961;42.640;23.380;2023-01-29T03:10:10;12.03;;;7.97;;
11807;SDS011;5961;42.640;23.380;2023-01-29T03:12:40;10.23;;;6.63;;
11807;SDS011;5961;42.640;23.380;2023-01-29T03:15:14;12.50;;;7.57;;
11807;SDS011;5961;42.640;23.380;2023-01-29T03:17:46;10.57;;;6.30;;
11807;SDS011;5961;42.640;23.380;2023-01-29T03:20:17;11.27;;;5.83;;
11807;SDS011;5961;42.640;23.380;2023-01-29T03:22:51;9.80;;;6.13;;
11807;SDS011;5961;42.640;23.380;2023-01-29T03:25:21;8.93;;;5.90;;
11807;SDS011;5961;42.640;23.380;2023-01-29T03:28:10;7.93;;;5.97;;
11807;SDS011;5961;42.640;23.380;2023-01-29T03:31:01;9.53;;;5.77;;
11807;SDS011;5961;42.640;23.380;2023-01-29T03:33:48;7.43;;;5.10;;
11807;SDS011;5961;42.640;23.380;2023-01-29T03:36:18;7.77;;;5.07;;
11807;SDS011;5961;42.640;23.380;2023-01-29T03:38:48;6.40;;;5.23;;
11807;SDS011;5961;42.640;23.380;2023-01-29T03:41:17;6.90;;;5.10;;
11807;SDS011;5961;42.640;23.380;2023-01-29T03:43:51;6.67;;;4.93;;
11807;SDS011;5961;42.640;23.380;2023-01-29T03:46:28;7.00;;;4.73;;
11807;SDS011;5961;42.640;23.380;2023-01-29T03:49:01;6.33;;;4.83;;
11807;SDS011;5961;42.640;23.380;2023-01-29T03:51:36;6.67;;;5.07;;
11807;SDS011;5961;42.640;23.380;2023-01-29T03:54:09;5.53;;;4.57;;
11807;SDS011;5961;42.640;23.380;2023-01-29T03:56:45;6.77;;;4.90;;
11807;SDS011;5961;42.640;23.380;2023-01-29T03:59:24;6.73;;;4.80;;
11807;SDS011;5961;42.640;23.380;2023-01-29T04:02:02;5.87;;;4.63;;
11807;SDS011;5961;42.640;23.380;2023-01-29T04:04:32;5.70;;;4.20;;
11807;SDS011;5961;42.640;23.380;2023-01-29T04:07:03;7.03;;;5.00;;
11807;SDS011;5961;42.640;23.380;2023-01-29T04:09:36;6.73;;;4.80;;
11807;SDS011;5961;42.640;23.380;2023-01-29T04:12:07;6.20;;;4.90;;
11807;SDS011;5961;42.640;23.380;2023-01-29T04:14:38;7.30;;;5.23;;
11807;SDS011;5961;42.640;23.380;2023-01-29T04:17:08;6.97;;;5.20;;
11807;SDS011;5961;42.640;23.380;2023-01-29T04:19:40;7.53;;;5.63;;
11807;SDS011;5961;42.640;23.380;2023-01-29T04:22:09;7.67;;;5.00;;
11807;SDS011;5961;42.640;23.380;2023-01-29T04:24:39;8.40;;;5.10;;
11807;SDS011;5961;42.640;23.380;2023-01-29T04:27:14;7.23;;;5.30;;
11807;SDS011;5961;42.640;23.380;2023-01-29T04:29:56;6.80;;;5.03;;
11807;SDS011;5961;42.640;23.380;2023-01-29T04:32:48;6.93;;;5.13;;
11807;SDS011;5961;42.640;23.380;2023-01-29T04:35:26;7.37;;;4.87;;
11807;SDS011;5961;42.640;23.380;2023-01-29T04:38:00;6.47;;;4.57;;
11807;SDS011;5961;42.640;23.380;2023-01-29T04:40:38;8.23;;;5.07;;
11807;SDS011;5961;42.640;23.380;2023-01-29T04:43:12;6.63;;;4.67;;
11807;SDS011;5961;42.640;23.380;2023-01-29T04:45:46;5.70;;;4.40;;
11807;SDS011;5961;42.640;23.380;2023-01-29T04:48:23;6.47;;;4.50;;
11807;SDS011;5961;42.640;23.380;2023-01-29T04:50:55;6.13;;;4.80;;
11807;SDS011;5961;42.640;23.380;2023-01-29T04:53:29;6.17;;;4.67;;
11807;SDS011;5961;42.640;23.380;2023-01-29T04:56:05;7.17;;;5.00;;
11807;SDS011;5961;42.640;23.380;2023-01-29T04:58:36;7.13;;;4.70;;
11807;SDS011;5961;42.640;23.380;2023-01-29T05:01:07;7.27;;;4.90;;
11807;SDS011;5961;42.640;23.380;2023-01-29T05:03:40;9.83;;;4.93;;
11807;SDS011;5961;42.640;23.380;2023-01-29T05:06:09;7.40;;;4.53;;
11807;SDS011;5961;42.640;23.380;2023-01-29T05:08:37;6.97;;;4.70;;
11807;SDS011;5961;42.640;23.380;2023-01-29T05:11:06;7.50;;;4.53;;
11807;SDS011;5961;42.640;23.380;2023-01-29T05:13:35;6.53;;;4.80;;
11807;SDS011;5961;42.640;23.380;2023-01-29T05:16:07;5.93;;;4.60;;
11807;SDS011;5961;42.640;23.380;2023-01-29T05:18:39;6.13;;;4.47;;
11807;SDS011;5961;42.640;23.380;2023-01-29T05:21:07;7.17;;;4.47;;
11807;SDS011;5961;42.640;23.380;2023-01-29T05:23:35;5.43;;;3.90;;
11807;SDS011;5961;42.640;23.380;2023-01-29T05:26:02;7.83;;;4.70;;
11807;SDS011;5961;42.640;23.380;2023-01-29T05:28:29;5.57;;;4.13;;
11807;SDS011;5961;42.640;23.380;2023-01-29T05:30:54;6.43;;;4.70;;
11807;SDS011;5961;42.640;23.380;2023-01-29T05:33:22;5.97;;;4.30;;
11807;SDS011;5961;42.640;23.380;2023-01-29T05:35:51;7.37;;;4.17;;
11807;SDS011;5961;42.640;23.380;2023-01-29T05:38:19;6.23;;;4.43;;
11807;SDS011;5961;42.640;23.380;2023-01-29T05:40:47;5.97;;;4.03;;
11807;SDS011;5961;42.640;23.380;2023-01-29T05:43:14;5.73;;;4.43;;
11807;SDS011;5961;42.640;23.380;2023-01-29T05:45:42;5.77;;;4.13;;
11807;SDS011;5961;42.640;23.380;2023-01-29T05:48:16;5.73;;;4.40;;
11807;SDS011;5961;42.640;23.380;2023-01-29T05:50:43;4.83;;;4.13;;
11807;SDS011;5961;42.640;23.380;2023-01-29T05:53:12;5.73;;;4.47;;
11807;SDS011;5961;42.640;23.380;2023-01-29T05:55:39;6.07;;;4.40;;
11807;SDS011;5961;42.640;23.380;2023-01-29T05:58:09;5.90;;;4.53;;
11807;SDS011;5961;42.640;23.380;2023-01-29T06:00:35;5.07;;;4.07;;
11807;SDS011;5961;42.640;23.380;2023-01-29T06:03:02;5.53;;;4.63;;
11807;SDS011;5961;42.640;23.380;2023-01-29T06:05:29;8.33;;;4.80;;
11807;SDS011;5961;42.640;23.380;2023-01-29T06:07:55;8.87;;;4.83;;
11807;SDS011;5961;42.640;23.380;2023-01-29T06:10:24;7.40;;;5.10;;
11807;SDS011;5961;42.640;23.380;2023-01-29T06:12:50;5.73;;;4.43;;
11807;SDS011;5961;42.640;23.380;2023-01-29T06:15:17;5.57;;;3.97;;
11807;SDS011;5961;42.640;23.380;2023-01-29T06:17:44;6.03;;;4.57;;
11807;SDS011;5961;42.640;23.380;2023-01-29T06:20:11;6.37;;;5.20;;
11807;SDS011;5961;42.640;23.380;2023-01-29T06:22:38;7.13;;;5.27;;
11807;SDS011;5961;42.640;23.380;2023-01-29T06:25:06;6.73;;;5.23;;
11807;SDS011;5961;42.640;23.380;2023-01-29T06:27:34;7.77;;;5.77;;
11807;SDS011;5961;42.640;23.380;2023-01-29T06:30:01;7.30;;;5.57;;
11807;SDS011;5961;42.640;23.380;2023-01-29T06:32:28;6.57;;;5.30;;
11807;SDS011;5961;42.640;23.380;2023-01-29T06:34:55;9.27;;;5.80;;
11807;SDS011;5961;42.640;23.380;2023-01-29T06:37:21;6.37;;;4.90;;
11807;SDS011;5961;42.640;23.380;2023-01-29T06:39:48;7.70;;;5.83;;
11807;SDS011;5961;42.640;23.380;2023-01-29T06:42:15;6.80;;;5.37;;
11807;SDS011;5961;42.640;23.380;2023-01-29T06:44:43;8.50;;;6.27;;
11807;SDS011;5961;42.640;23.380;2023-01-29T06:47:10;7.20;;;5.43;;
11807;SDS011;5961;42.640;23.380;2023-01-29T06:49:36;7.33;;;5.50;;
11807;SDS011;5961;42.640;23.380;2023-01-29T06:52:03;9.13;;;6.03;;
11807;SDS011;5961;42.640;23.380;2023-01-29T06:54:30;9.50;;;6.13;;
11807;SDS011;5961;42.640;23.380;2023-01-29T06:56:57;9.33;;;6.50;;
11807;SDS011;5961;42.640;23.380;2023-01-29T06:59:24;8.27;;;6.20;;
11807;SDS011;5961;42.640;23.380;2023-01-29T07:01:52;9.10;;;6.60;;
11807;SDS011;5961;42.640;23.380;2023-01-29T07:04:18;10.00;;;6.80;;
11807;SDS011;5961;42.640;23.380;2023-01-29T07:06:45;12.00;;;6.23;;
11807;SDS011;5961;42.640;23.380;2023-01-29T07:09:12;8.07;;;5.80;;
11807;SDS011;5961;42.640;23.380;2023-01-29T07:11:39;9.47;;;6.17;;
11807;SDS011;5961;42.640;23.380;2023-01-29T07:14:06;8.73;;;6.00;;
11807;SDS011;5961;42.640;23.380;2023-01-29T07:16:33;8.80;;;6.40;;
11807;SDS011;5961;42.640;23.380;2023-01-29T07:19:01;7.77;;;5.97;;
11807;SDS011;5961;42.640;23.380;2023-01-29T07:21:28;8.90;;;6.50;;
11807;SDS011;5961;42.640;23.380;2023-01-29T07:23:54;8.80;;;6.40;;
11807;SDS011;5961;42.640;23.380;2023-01-29T07:26:21;8.30;;;6.17;;
11807;SDS011;5961;42.640;23.380;2023-01-29T07:28:48;9.27;;;7.00;;
11807;SDS011;5961;42.640;23.380;2023-01-29T07:31:15;8.57;;;6.50;;
11807;SDS011;5961;42.640;23.380;2023-01-29T07:33:41;12.00;;;7.00;;
11807;SDS011;5961;42.640;23.380;2023-01-29T07:36:10;9.80;;;7.20;;
11807;SDS011;5961;42.640;23.380;2023-01-29T07:38:38;9.17;;;6.90;;
11807;SDS011;5961;42.640;23.380;2023-01-29T07:41:04;10.10;;;6.60;;
11807;SDS011;5961;42.640;23.380;2023-01-29T07:43:31;10.30;;;7.30;;
11807;SDS011;5961;42.640;23.380;2023-01-29T07:46:00;10.57;;;7.73;;
11807;SDS011;5961;42.640;23.380;2023-01-29T07:48:28;11.93;;;7.93;;
11807;SDS011;5961;42.640;23.380;2023-01-29T07:50:55;11.67;;;6.93;;
11807;SDS011;5961;42.640;23.380;2023-01-29T07:53:24;12.03;;;8.40;;
11807;SDS011;5961;42.640;23.380;2023-01-29T07:55:51;9.73;;;6.80;;
11807;SDS011;5961;42.640;23.380;2023-01-29T07:58:18;11.33;;;7.43;;
11807;SDS011;5961;42.640;23.380;2023-01-29T08:00:45;13.70;;;8.37;;
11807;SDS011;5961;42.640;23.380;2023-01-29T08:03:12;10.80;;;7.57;;
11807;SDS011;5961;42.640;23.380;2023-01-29T08:05:40;10.20;;;7.50;;
11807;SDS011;5961;42.640;23.380;2023-01-29T08:08:07;11.57;;;8.23;;
11807;SDS011;5961;42.640;23.380;2023-01-29T08:10:36;11.20;;;7.90;;
11807;SDS011;5961;42.640;23.380;2023-01-29T08:13:04;12.40;;;7.90;;
11807;SDS011;5961;42.640;23.380;2023-01-29T08:15:31;11.10;;;8.17;;
11807;SDS011;5961;42.640;23.380;2023-01-29T08:17:59;11.97;;;8.20;;
11807;SDS011;5961;42.640;23.380;2023-01-29T08:20:26;13.37;;;8.17;;
11807;SDS011;5961;42.640;23.380;2023-01-29T08:22:57;13.20;;;8.40;;
11807;SDS011;5961;42.640;23.380;2023-01-29T08:25:24;11.73;;;8.27;;
11807;SDS011;5961;42.640;23.380;2023-01-29T08:27:52;13.03;;;9.00;;
11807;SDS011;5961;42.640;23.380;2023-01-29T08:30:19;11.20;;;8.23;;
11807;SDS011;5961;42.640;23.380;2023-01-29T08:32:46;15.13;;;8.93;;
11807;SDS011;5961;42.640;23.380;2023-01-29T08:35:12;11.70;;;8.20;;
11807;SDS011;5961;42.640;23.380;2023-01-29T08:37:39;11.77;;;8.40;;
11807;SDS011;5961;42.640;23.380;2023-01-29T08:40:07;12.23;;;8.70;;
11807;SDS011;5961;42.640;23.380;2023-01-29T08:42:36;11.43;;;8.13;;
11807;SDS011;5961;42.640;23.380;2023-01-29T08:45:05;14.27;;;8.77;;
11807;SDS011;5961;42.640;23.380;2023-01-29T08:47:32;13.80;;;8.83;;
11807;SDS011;5961;42.640;23.380;2023-01-29T08:49:59;12.03;;;8.53;;
11807;SDS011;5961;42.640;23.380;2023-01-29T08:52:26;10.13;;;8.03;;
11807;SDS011;5961;42.640;23.380;2023-01-29T08:54:52;11.87;;;7.87;;
11807;SDS011;5961;42.640;23.380;2023-01-29T08:57:19;12.53;;;8.40;;
11807;SDS011;5961;42.640;23.380;2023-01-29T08:59:46;11.47;;;7.57;;
11807;SDS011;5961;42.640;23.380;2023-01-29T09:02:14;10.37;;;7.93;;
11807;SDS011;5961;42.640;23.380;2023-01-29T09:04:41;11.90;;;7.73;;
11807;SDS011;5961;42.640;23.380;2023-01-29T09:07:08;10.77;;;7.90;;
11807;SDS011;5961;42.640;23.380;2023-01-29T09:09:34;11.73;;;7.97;;
11807;SDS011;5961;42.640;23.380;2023-01-29T09:12:02;11.40;;;7.40;;
11807;SDS011;5961;42.640;23.380;2023-01-29T09:14:29;10.53;;;7.30;;
11807;SDS011;5961;42.640;23.380;2023-01-29T09:16:56;12.03;;;8.00;;
11807;SDS011;5961;42.640;23.380;2023-01-29T09:19:24;13.10;;;8.60;;
11807;SDS011;5961;42.640;23.380;2023-01-29T09:21:51;13.27;;;8.77;;
11807;SDS011;5961;42.640;23.380;2023-01-29T09:24:18;11.53;;;7.90;;
11807;SDS011;5961;42.640;23.380;2023-01-29T09:26:47;15.17;;;8.57;;
11807;SDS011;5961;42.640;23.380;2023-01-29T09:29:16;11.77;;;7.90;;
11807;SDS011;5961;42.640;23.380;2023-01-29T09:31:43;12.27;;;8.07;;
11807;SDS011;5961;42.640;23.380;2023-01-29T09:34:10;12.80;;;8.50;;
11807;SDS011;5961;42.640;23.380;2023-01-29T09:36:38;11.97;;;7.97;;
11807;SDS011;5961;42.640;23.380;2023-01-29T09:39:04;11.97;;;7.97;;
11807;SDS011;5961;42.640;23.380;2023-01-29T09:41:35;11.50;;;7.90;;
11807;SDS011;5961;42.640;23.380;2023-01-29T09:44:16;14.13;;;8.97;;
11807;SDS011;5961;42.640;23.380;2023-01-29T09:46:47;11.47;;;8.53;;
11807;SDS011;5961;42.640;23.380;2023-01-29T09:49:17;13.47;;;8.80;;
11807;SDS011;5961;42.640;23.380;2023-01-29T09:51:53;15.13;;;9.40;;
11807;SDS011;5961;42.640;23.380;2023-01-29T09:54:24;12.43;;;8.80;;
11807;SDS011;5961;42.640;23.380;2023-01-29T09:56:55;14.20;;;9.03;;
11807;SDS011;5961;42.640;23.380;2023-01-29T09:59:23;15.53;;;9.57;;
11807;SDS011;5961;42.640;23.380;2023-01-29T10:01:54;13.90;;;8.77;;
11807;SDS011;5961;42.640;23.380;2023-01-29T10:04:34;17.57;;;9.23;;
11807;SDS011;5961;42.640;23.380;2023-01-29T10:10:24;19.30;;;10.80;;
11807;SDS011;5961;42.640;23.380;2023-01-29T10:13:00;20.20;;;10.93;;
11807;SDS011;5961;42.640;23.380;2023-01-29T10:15:45;15.47;;;9.60;;
11807;SDS011;5961;42.640;23.380;2023-01-29T10:18:27;13.60;;;8.27;;
11807;SDS011;5961;42.640;23.380;2023-01-29T10:21:31;12.40;;;8.23;;
11807;SDS011;5961;42.640;23.380;2023-01-29T10:24:15;11.63;;;7.83;;
11807;SDS011;5961;42.640;23.380;2023-01-29T10:26:51;13.20;;;8.77;;
11807;SDS011;5961;42.640;23.380;2023-01-29T10:29:19;13.77;;;8.67;;
11807;SDS011;5961;42.640;23.380;2023-01-29T10:31:48;15.60;;;10.27;;
11807;SDS011;5961;42.640;23.380;2023-01-29T10:34:19;13.93;;;8.60;;
11807;SDS011;5961;42.640;23.380;2023-01-29T10:36:53;12.33;;;8.67;;
11807;SDS011;5961;42.640;23.380;2023-01-29T10:39:23;16.80;;;9.67;;
11807;SDS011;5961;42.640;23.380;2023-01-29T10:41:57;12.63;;;8.87;;
11807;SDS011;5961;42.640;23.380;2023-01-29T10:44:39;14.20;;;9.60;;
11807;SDS011;5961;42.640;23.380;2023-01-29T10:50:16;15.83;;;9.77;;
11807;SDS011;5961;42.640;23.380;2023-01-29T10:52:57;16.07;;;10.23;;
11807;SDS011;5961;42.640;23.380;2023-01-29T10:55:42;16.07;;;8.87;;
11807;SDS011;5961;42.640;23.380;2023-01-29T10:58:20;15.90;;;9.90;;
11807;SDS011;5961;42.640;23.380;2023-01-29T11:00:54;15.67;;;8.77;;
11807;SDS011;5961;42.640;23.380;2023-01-29T11:03:22;17.43;;;10.60;;
11807;SDS011;5961;42.640;23.380;2023-01-29T11:05:50;17.07;;;10.10;;
11807;SDS011;5961;42.640;23.380;2023-01-29T11:08:24;16.43;;;10.53;;
11807;SDS011;5961;42.640;23.380;2023-01-29T11:11:00;15.97;;;10.20;;
11807;SDS011;5961;42.640;23.380;2023-01-29T11:13:34;16.27;;;9.37;;
11807;SDS011;5961;42.640;23.380;2023-01-29T11:16:06;19.07;;;10.03;;
11807;SDS011;5961;42.640;23.380;2023-01-29T11:18:54;17.97;;;10.20;;
11807;SDS011;5961;42.640;23.380;2023-01-29T11:21:22;15.23;;;9.83;;
11807;SDS011;5961;42.640;23.380;2023-01-29T11:23:50;16.43;;;9.80;;
11807;SDS011;5961;42.640;23.380;2023-01-29T11:26:34;15.40;;;10.30;;
11807;SDS011;5961;42.640;23.380;2023-01-29T11:29:04;16.40;;;9.97;;
11807;SDS011;5961;42.640;23.380;2023-01-29T11:31:52;17.47;;;11.17;;
11807;SDS011;5961;42.640;23.380;2023-01-29T11:34:20;17.20;;;11.03;;
11807;SDS011;5961;42.640;23.380;2023-01-29T11:36:54;18.67;;;10.80;;
11807;SDS011;5961;42.640;23.380;2023-01-29T11:39:23;18.87;;;11.27;;
11807;SDS011;5961;42.640;23.380;2023-01-29T11:41:53;19.17;;;11.87;;
11807;SDS011;5961;42.640;23.380;2023-01-29T11:44:26;20.00;;;12.07;;
11807;SDS011;5961;42.640;23.380;2023-01-29T11:46:56;18.47;;;11.27;;
11807;SDS011;5961;42.640;23.380;2023-01-29T11:49:35;16.87;;;10.50;;
11807;SDS011;5961;42.640;23.380;2023-01-29T11:52:03;19.43;;;11.70;;
11807;SDS011;5961;42.640;23.380;2023-01-29T11:54:35;17.73;;;11.13;;
11807;SDS011;5961;42.640;23.380;2023-01-29T11:57:05;18.77;;;10.70;;
11807;SDS011;5961;42.640;23.380;2023-01-29T11:59:48;17.13;;;10.83;;
11807;SDS011;5961;42.640;23.380;2023-01-29T12:02:24;18.77;;;11.20;;
11807;SDS011;5961;42.640;23.380;2023-01-29T12:04:56;17.23;;;10.37;;
11807;SDS011;5961;42.640;23.380;2023-01-29T12:07:25;16.77;;;10.23;;
11807;SDS011;5961;42.640;23.380;2023-01-29T12:09:53;18.00;;;10.60;;
11807;SDS011;5961;42.640;23.380;2023-01-29T12:15:14;18.40;;;10.63;;
11807;SDS011;5961;42.640;23.380;2023-01-29T12:17:46;15.47;;;9.23;;
11807;SDS011;5961;42.640;23.380;2023-01-29T12:20:21;17.17;;;10.17;;
11807;SDS011;5961;42.640;23.380;2023-01-29T12:22:53;17.53;;;10.67;;
11807;SDS011;5961;42.640;23.380;2023-01-29T12:25:29;17.07;;;9.93;;
11807;SDS011;5961;42.640;23.380;2023-01-29T12:28:05;19.93;;;11.00;;
11807;SDS011;5961;42.640;23.380;2023-01-29T12:30:42;20.00;;;11.13;;
11807;SDS011;5961;42.640;23.380;2023-01-29T12:33:17;16.70;;;10.93;;
11807;SDS011;5961;42.640;23.380;2023-01-29T12:35:52;19.57;;;11.37;;
11807;SDS011;5961;42.640;23.380;2023-01-29T12:38:23;19.97;;;11.73;;
11807;SDS011;5961;42.640;23.380;2023-01-29T12:40:51;19.30;;;10.80;;
11807;SDS011;5961;42.640;23.380;2023-01-29T12:43:22;18.90;;;10.93;;
11807;SDS011;5961;42.640;23.380;2023-01-29T12:45:55;17.47;;;10.83;;
11807;SDS011;5961;42.640;23.380;2023-01-29T12:48:26;17.53;;;11.53;;
11807;SDS011;5961;42.640;23.380;2023-01-29T12:50:58;17.70;;;11.50;;
11807;SDS011;5961;42.640;23.380;2023-01-29T12:53:32;19.13;;;12.27;;
11807;SDS011;5961;42.640;23.380;2023-01-29T12:56:04;17.73;;;11.47;;
11807;SDS011;5961;42.640;23.380;2023-01-29T12:58:35;18.37;;;11.20;;
11807;SDS011;5961;42.640;23.380;2023-01-29T13:01:09;19.20;;;11.83;;
11807;SDS011;5961;42.640;23.380;2023-01-29T13:03:44;17.43;;;11.00;;
11807;SDS011;5961;42.640;23.380;2023-01-29T13:06:17;18.20;;;11.47;;
11807;SDS011;5961;42.640;23.380;2023-01-29T13:08:49;18.03;;;11.33;;
11807;SDS011;5961;42.640;23.380;2023-01-29T13:11:20;16.43;;;9.93;;
11807;SDS011;5961;42.640;23.380;2023-01-29T13:13:53;19.70;;;11.37;;
11807;SDS011;5961;42.640;23.380;2023-01-29T13:16:24;15.97;;;9.77;;
11807;SDS011;5961;42.640;23.380;2023-01-29T13:18:57;16.83;;;10.43;;
11807;SDS011;5961;42.640;23.380;2023-01-29T13:21:28;15.93;;;10.10;;
11807;SDS011;5961;42.640;23.380;2023-01-29T13:24:01;16.07;;;10.63;;
11807;SDS011;5961;42.640;23.380;2023-01-29T13:26:29;16.10;;;11.00;;
11807;SDS011;5961;42.640;23.380;2023-01-29T13:28:58;15.90;;;9.73;;
11807;SDS011;5961;42.640;23.380;2023-01-29T13:31:28;17.70;;;10.07;;
11807;SDS011;5961;42.640;23.380;2023-01-29T13:34:03;15.83;;;9.80;;
11807;SDS011;5961;42.640;23.380;2023-01-29T13:36:40;17.20;;;11.07;;
11807;SDS011;5961;42.640;23.380;2023-01-29T13:39:21;19.90;;;11.77;;
11807;SDS011;5961;42.640;23.380;2023-01-29T13:41:51;19.43;;;11.40;;
11807;SDS011;5961;42.640;23.380;2023-01-29T13:44:22;18.87;;;11.77;;
11807;SDS011;5961;42.640;23.380;2023-01-29T13:46:53;19.83;;;12.40;;
11807;SDS011;5961;42.640;23.380;2023-01-29T13:49:31;17.70;;;11.20;;
11807;SDS011;5961;42.640;23.380;2023-01-29T13:54:49;14.23;;;10.50;;
11807;SDS011;5961;42.640;23.380;2023-01-29T14:09:29;16.07;;;10.37;;
11807;SDS011;5961;42.640;23.380;2023-01-29T14:15:04;16.03;;;10.30;;
11807;SDS011;5961;42.640;23.380;2023-01-29T14:17:57;17.63;;;10.60;;
11807;SDS011;5961;42.640;23.380;2023-01-29T14:20:29;17.43;;;10.33;;
11807;SDS011;5961;42.640;23.380;2023-01-29T14:22:59;17.73;;;10.53;;
11807;SDS011;5961;42.640;23.380;2023-01-29T14:25:28;16.20;;;10.53;;
11807;SDS011;5961;42.640;23.380;2023-01-29T14:27:57;16.17;;;9.97;;
11807;SDS011;5961;42.640;23.380;2023-01-29T14:30:25;16.23;;;10.57;;
11807;SDS011;5961;42.640;23.380;2023-01-29T14:32:55;15.97;;;10.13;;
11807;SDS011;5961;42.640;23.380;2023-01-29T14:35:23;13.93;;;9.33;;
11807;SDS011;5961;42.640;23.380;2023-01-29T14:37:52;15.70;;;10.17;;
11807;SDS011;5961;42.640;23.380;2023-01-29T14:40:24;16.57;;;10.80;;
11807;SDS011;5961;42.640;23.380;2023-01-29T14:42:55;17.97;;;10.63;;
11807;SDS011;5961;42.640;23.380;2023-01-29T14:45:26;16.10;;;10.77;;
11807;SDS011;5961;42.640;23.380;2023-01-29T14:47:58;17.47;;;10.93;;
11807;SDS011;5961;42.640;23.380;2023-01-29T14:53:26;20.40;;;11.60;;
11807;SDS011;5961;42.640;23.380;2023-01-29T14:56:02;19.17;;;11.90;;
11807;SDS011;5961;42.640;23.380;2023-01-29T14:58:36;19.60;;;12.93;;
11807;SDS011;5961;42.640;23.380;2023-01-29T15:01:13;19.40;;;12.00;;
11807;SDS011;5961;42.640;23.380;2023-01-29T15:03:45;24.63;;;14.40;;
11807;SDS011;5961;42.640;23.380;2023-01-29T15:06:15;21.43;;;12.93;;
11807;SDS011;5961;42.640;23.380;2023-01-29T15:08:46;21.53;;;13.40;;
11807;SDS011;5961;42.640;23.380;2023-01-29T15:11:21;21.20;;;13.43;;
11807;SDS011;5961;42.640;23.380;2023-01-29T15:14:15;22.70;;;13.73;;
11807;SDS011;5961;42.640;23.380;2023-01-29T15:16:58;22.03;;;12.73;;
11807;SDS011;5961;42.640;23.380;2023-01-29T15:19:31;21.33;;;13.30;;
11807;SDS011;5961;42.640;23.380;2023-01-29T15:22:04;22.87;;;13.20;;
11807;SDS011;5961;42.640;23.380;2023-01-29T15:24:33;26.30;;;13.90;;
11807;SDS011;5961;42.640;23.380;2023-01-29T15:27:01;24.50;;;14.63;;
11807;SDS011;5961;42.640;23.380;2023-01-29T15:29:29;23.00;;;12.87;;